sensor_id;sensor_type;location;lat;lon;timestamp;P1;durP1;ratioP1;P2;durP2;ratioP2
53040;SDS011;39326;42.650;23.248;2022-12-07T00:00:50;45.40;;;32.83;;
53040;SDS011;39326;42.650;23.248;2022-12-07T00:03:15;44.60;;;32.43;;
53040;SDS011;39326;42.650;23.248;2022-12-07T00:05:40;43.07;;;33.53;;
53040;SDS011;39326;42.650;23.248;2022-12-07T00:08:06;45.47;;;32.87;;
53040;SDS011;39326;42.650;23.248;2022-12-07T00:10:33;46.37;;;33.10;;
53040;SDS011;39326;42.650;23.248;2022-12-07T00:12:59;42.03;;;29.47;;
53040;SDS011;39326;42.650;23.248;2022-12-07T00:15:24;43.80;;;33.13;;
53040;SDS011;39326;42.650;23.248;2022-12-07T00:17:49;46.43;;;33.27;;
53040;SDS011;39326;42.650;23.248;2022-12-07T00:20:15;41.73;;;31.67;;
53040;SDS011;39326;42.650;23.248;2022-12-07T00:22:40;42.13;;;30.87;;
53040;SDS011;39326;42.650;23.248;2022-12-07T00:25:06;39.83;;;31.77;;
53040;SDS011;39326;42.650;23.248;2022-12-07T00:27:31;51.57;;;35.10;;
53040;SDS011;39326;42.650;23.248;2022-12-07T00:29:57;45.93;;;34.37;;
53040;SDS011;39326;42.650;23.248;2022-12-07T00:32:22;43.83;;;32.97;;
53040;SDS011;39326;42.650;23.248;2022-12-07T00:34:47;43.70;;;33.87;;
53040;SDS011;39326;42.650;23.248;2022-12-07T00:37:13;42.53;;;31.90;;
53040;SDS011;39326;42.650;23.248;2022-12-07T00:39:38;39.27;;;31.27;;
53040;SDS011;39326;42.650;23.248;2022-12-07T00:42:04;38.87;;;29.57;;
53040;SDS011;39326;42.650;23.248;2022-12-07T00:44:29;45.90;;;31.50;;
53040;SDS011;39326;42.650;23.248;2022-12-07T00:46:55;35.30;;;28.23;;
53040;SDS011;39326;42.650;23.248;2022-12-07T00:49:20;42.13;;;32.43;;
53040;SDS011;39326;42.650;23.248;2022-12-07T00:51:47;38.07;;;30.73;;
53040;SDS011;39326;42.650;23.248;2022-12-07T00:54:13;37.20;;;29.67;;
53040;SDS011;39326;42.650;23.248;2022-12-07T00:56:39;38.63;;;29.37;;
53040;SDS011;39326;42.650;23.248;2022-12-07T00:59:04;34.93;;;29.40;;
53040;SDS011;39326;42.650;23.248;2022-12-07T01:01:31;34.73;;;28.33;;
53040;SDS011;39326;42.650;23.248;2022-12-07T01:04:01;34.20;;;27.00;;
53040;SDS011;39326;42.650;23.248;2022-12-07T01:06:28;45.17;;;30.30;;
53040;SDS011;39326;42.650;23.248;2022-12-07T01:08:54;36.50;;;28.87;;
53040;SDS011;39326;42.650;23.248;2022-12-07T01:11:21;36.40;;;28.63;;
53040;SDS011;39326;42.650;23.248;2022-12-07T01:13:49;31.23;;;26.97;;
53040;SDS011;39326;42.650;23.248;2022-12-07T01:16:16;34.57;;;24.97;;
53040;SDS011;39326;42.650;23.248;2022-12-07T01:18:42;30.63;;;25.23;;
53040;SDS011;39326;42.650;23.248;2022-12-07T01:21:14;37.80;;;26.37;;
53040;SDS011;39326;42.650;23.248;2022-12-07T01:23:41;32.10;;;25.23;;
53040;SDS011;39326;42.650;23.248;2022-12-07T01:26:10;30.40;;;24.30;;
53040;SDS011;39326;42.650;23.248;2022-12-07T01:28:37;32.97;;;25.13;;
53040;SDS011;39326;42.650;23.248;2022-12-07T01:31:04;34.63;;;24.87;;
53040;SDS011;39326;42.650;23.248;2022-12-07T01:33:33;30.53;;;23.60;;
53040;SDS011;39326;42.650;23.248;2022-12-07T01:38:45;30.17;;;23.30;;
53040;SDS011;39326;42.650;23.248;2022-12-07T01:41:12;29.10;;;23.57;;
53040;SDS011;39326;42.650;23.248;2022-12-07T01:46:38;28.70;;;21.90;;
53040;SDS011;39326;42.650;23.248;2022-12-07T01:49:08;33.80;;;25.60;;
53040;SDS011;39326;42.650;23.248;2022-12-07T01:51:40;33.43;;;25.17;;
53040;SDS011;39326;42.650;23.248;2022-12-07T01:54:07;28.57;;;22.97;;
53040;SDS011;39326;42.650;23.248;2022-12-07T01:56:35;28.87;;;23.47;;
53040;SDS011;39326;42.650;23.248;2022-12-07T01:59:02;29.10;;;23.27;;
53040;SDS011;39326;42.650;23.248;2022-12-07T02:01:27;31.50;;;25.07;;
53040;SDS011;39326;42.650;23.248;2022-12-07T02:03:53;35.20;;;27.27;;
53040;SDS011;39326;42.650;23.248;2022-12-07T02:06:20;27.33;;;24.40;;
53040;SDS011;39326;42.650;23.248;2022-12-07T02:08:48;31.70;;;26.27;;
53040;SDS011;39326;42.650;23.248;2022-12-07T02:11:14;43.67;;;31.60;;
53040;SDS011;39326;42.650;23.248;2022-12-07T02:13:41;34.77;;;27.03;;
53040;SDS011;39326;42.650;23.248;2022-12-07T02:24:48;34.07;;;27.03;;
53040;SDS011;39326;42.650;23.248;2022-12-07T02:27:44;33.83;;;25.07;;
53040;SDS011;39326;42.650;23.248;2022-12-07T02:32:42;31.40;;;24.67;;
53040;SDS011;39326;42.650;23.248;2022-12-07T02:35:12;29.67;;;22.97;;
53040;SDS011;39326;42.650;23.248;2022-12-07T02:40:17;37.17;;;27.23;;
53040;SDS011;39326;42.650;23.248;2022-12-07T02:42:51;36.33;;;27.47;;
53040;SDS011;39326;42.650;23.248;2022-12-07T02:45:22;32.77;;;25.37;;
53040;SDS011;39326;42.650;23.248;2022-12-07T02:47:52;32.70;;;23.57;;
53040;SDS011;39326;42.650;23.248;2022-12-07T02:50:21;28.93;;;23.60;;
53040;SDS011;39326;42.650;23.248;2022-12-07T02:52:47;28.67;;;23.13;;
53040;SDS011;39326;42.650;23.248;2022-12-07T02:55:13;27.10;;;22.73;;
53040;SDS011;39326;42.650;23.248;2022-12-07T02:57:53;28.27;;;22.07;;
53040;SDS011;39326;42.650;23.248;2022-12-07T03:00:21;25.77;;;19.60;;
53040;SDS011;39326;42.650;23.248;2022-12-07T03:08:19;24.20;;;19.70;;
53040;SDS011;39326;42.650;23.248;2022-12-07T03:18:50;26.93;;;20.33;;
53040;SDS011;39326;42.650;23.248;2022-12-07T03:21:20;27.43;;;21.47;;
53040;SDS011;39326;42.650;23.248;2022-12-07T03:23:51;25.77;;;20.60;;
53040;SDS011;39326;42.650;23.248;2022-12-07T03:26:26;25.10;;;19.47;;
53040;SDS011;39326;42.650;23.248;2022-12-07T03:28:57;26.47;;;22.27;;
53040;SDS011;39326;42.650;23.248;2022-12-07T03:31:26;23.07;;;19.50;;
53040;SDS011;39326;42.650;23.248;2022-12-07T03:34:02;23.77;;;18.67;;
53040;SDS011;39326;42.650;23.248;2022-12-07T03:36:51;23.77;;;18.90;;
53040;SDS011;39326;42.650;23.248;2022-12-07T03:41:54;23.77;;;19.17;;
53040;SDS011;39326;42.650;23.248;2022-12-07T03:44:23;22.13;;;17.60;;
53040;SDS011;39326;42.650;23.248;2022-12-07T03:55:05;22.90;;;16.53;;
53040;SDS011;39326;42.650;23.248;2022-12-07T03:57:34;21.67;;;17.50;;
53040;SDS011;39326;42.650;23.248;2022-12-07T04:00:03;26.27;;;19.20;;
53040;SDS011;39326;42.650;23.248;2022-12-07T04:02:30;20.47;;;17.50;;
53040;SDS011;39326;42.650;23.248;2022-12-07T04:04:57;20.87;;;16.57;;
53040;SDS011;39326;42.650;23.248;2022-12-07T04:07:22;23.17;;;18.73;;
53040;SDS011;39326;42.650;23.248;2022-12-07T04:09:48;21.43;;;16.30;;
53040;SDS011;39326;42.650;23.248;2022-12-07T04:12:13;21.63;;;16.27;;
53040;SDS011;39326;42.650;23.248;2022-12-07T04:14:39;19.73;;;16.20;;
53040;SDS011;39326;42.650;23.248;2022-12-07T04:17:04;20.73;;;16.23;;
53040;SDS011;39326;42.650;23.248;2022-12-07T04:19:33;21.50;;;17.33;;
53040;SDS011;39326;42.650;23.248;2022-12-07T04:21:59;21.73;;;16.83;;
53040;SDS011;39326;42.650;23.248;2022-12-07T04:24:26;23.20;;;15.87;;
53040;SDS011;39326;42.650;23.248;2022-12-07T04:26:52;18.50;;;13.27;;
53040;SDS011;39326;42.650;23.248;2022-12-07T04:29:18;21.67;;;17.00;;
53040;SDS011;39326;42.650;23.248;2022-12-07T04:31:44;18.77;;;16.47;;
53040;SDS011;39326;42.650;23.248;2022-12-07T04:34:10;18.43;;;15.50;;
53040;SDS011;39326;42.650;23.248;2022-12-07T04:36:36;18.37;;;15.13;;
53040;SDS011;39326;42.650;23.248;2022-12-07T04:39:03;25.53;;;17.90;;
53040;SDS011;39326;42.650;23.248;2022-12-07T04:41:30;23.57;;;19.00;;
53040;SDS011;39326;42.650;23.248;2022-12-07T04:43:56;21.53;;;15.57;;
53040;SDS011;39326;42.650;23.248;2022-12-07T04:46:23;24.63;;;17.70;;
53040;SDS011;39326;42.650;23.248;2022-12-07T04:48:49;20.83;;;17.57;;
53040;SDS011;39326;42.650;23.248;2022-12-07T04:51:17;22.13;;;17.03;;
53040;SDS011;39326;42.650;23.248;2022-12-07T04:53:46;23.13;;;18.43;;
53040;SDS011;39326;42.650;23.248;2022-12-07T04:56:12;22.30;;;16.60;;
53040;SDS011;39326;42.650;23.248;2022-12-07T04:58:38;24.20;;;18.83;;
53040;SDS011;39326;42.650;23.248;2022-12-07T05:01:03;24.03;;;19.87;;
53040;SDS011;39326;42.650;23.248;2022-12-07T05:03:28;25.93;;;19.67;;
53040;SDS011;39326;42.650;23.248;2022-12-07T05:05:54;24.27;;;19.50;;
53040;SDS011;39326;42.650;23.248;2022-12-07T05:08:19;24.87;;;19.97;;
53040;SDS011;39326;42.650;23.248;2022-12-07T05:10:45;26.10;;;20.87;;
53040;SDS011;39326;42.650;23.248;2022-12-07T05:13:10;25.00;;;20.60;;
53040;SDS011;39326;42.650;23.248;2022-12-07T05:15:36;27.53;;;21.37;;
53040;SDS011;39326;42.650;23.248;2022-12-07T05:18:01;28.43;;;21.10;;
53040;SDS011;39326;42.650;23.248;2022-12-07T05:20:28;27.90;;;19.73;;
53040;SDS011;39326;42.650;23.248;2022-12-07T05:22:53;24.83;;;19.00;;
53040;SDS011;39326;42.650;23.248;2022-12-07T05:25:19;25.70;;;20.60;;
53040;SDS011;39326;42.650;23.248;2022-12-07T05:27:44;24.20;;;19.20;;
53040;SDS011;39326;42.650;23.248;2022-12-07T05:30:09;27.37;;;20.73;;
53040;SDS011;39326;42.650;23.248;2022-12-07T05:32:35;26.67;;;20.83;;
53040;SDS011;39326;42.650;23.248;2022-12-07T05:35:01;30.53;;;23.93;;
53040;SDS011;39326;42.650;23.248;2022-12-07T05:37:26;30.40;;;22.53;;
53040;SDS011;39326;42.650;23.248;2022-12-07T05:39:51;29.57;;;22.10;;
53040;SDS011;39326;42.650;23.248;2022-12-07T05:42:17;29.30;;;21.90;;
53040;SDS011;39326;42.650;23.248;2022-12-07T05:44:43;33.00;;;23.17;;
53040;SDS011;39326;42.650;23.248;2022-12-07T05:47:11;28.60;;;22.53;;
53040;SDS011;39326;42.650;23.248;2022-12-07T05:49:37;37.67;;;28.20;;
53040;SDS011;39326;42.650;23.248;2022-12-07T05:52:03;33.17;;;24.80;;
53040;SDS011;39326;42.650;23.248;2022-12-07T05:54:29;33.10;;;24.87;;
53040;SDS011;39326;42.650;23.248;2022-12-07T05:56:54;33.57;;;24.27;;
53040;SDS011;39326;42.650;23.248;2022-12-07T05:59:20;30.03;;;22.60;;
53040;SDS011;39326;42.650;23.248;2022-12-07T06:01:52;28.60;;;22.37;;
53040;SDS011;39326;42.650;23.248;2022-12-07T06:04:20;28.10;;;21.83;;
53040;SDS011;39326;42.650;23.248;2022-12-07T06:06:47;31.37;;;22.63;;
53040;SDS011;39326;42.650;23.248;2022-12-07T06:09:13;27.97;;;22.07;;
53040;SDS011;39326;42.650;23.248;2022-12-07T06:11:42;29.90;;;23.53;;
53040;SDS011;39326;42.650;23.248;2022-12-07T06:14:26;31.20;;;24.10;;
53040;SDS011;39326;42.650;23.248;2022-12-07T06:16:52;38.20;;;27.27;;
53040;SDS011;39326;42.650;23.248;2022-12-07T06:19:17;36.63;;;25.20;;
53040;SDS011;39326;42.650;23.248;2022-12-07T06:21:43;38.53;;;26.57;;
53040;SDS011;39326;42.650;23.248;2022-12-07T06:24:11;37.47;;;27.83;;
53040;SDS011;39326;42.650;23.248;2022-12-07T06:26:37;38.50;;;25.77;;
53040;SDS011;39326;42.650;23.248;2022-12-07T06:29:03;36.73;;;27.17;;
53040;SDS011;39326;42.650;23.248;2022-12-07T06:31:28;48.30;;;29.17;;
53040;SDS011;39326;42.650;23.248;2022-12-07T06:34:00;37.17;;;26.83;;
53040;SDS011;39326;42.650;23.248;2022-12-07T06:36:26;41.33;;;28.07;;
53040;SDS011;39326;42.650;23.248;2022-12-07T06:38:55;38.80;;;29.40;;
53040;SDS011;39326;42.650;23.248;2022-12-07T06:41:21;40.70;;;30.30;;
53040;SDS011;39326;42.650;23.248;2022-12-07T06:43:47;42.53;;;30.27;;
53040;SDS011;39326;42.650;23.248;2022-12-07T06:46:12;37.60;;;30.70;;
53040;SDS011;39326;42.650;23.248;2022-12-07T06:48:39;42.33;;;31.30;;
53040;SDS011;39326;42.650;23.248;2022-12-07T06:51:04;42.60;;;30.10;;
53040;SDS011;39326;42.650;23.248;2022-12-07T06:53:30;57.87;;;30.90;;
53040;SDS011;39326;42.650;23.248;2022-12-07T06:55:55;41.50;;;31.27;;
53040;SDS011;39326;42.650;23.248;2022-12-07T06:58:20;47.30;;;31.33;;
53040;SDS011;39326;42.650;23.248;2022-12-07T07:00:47;90.53;;;35.77;;
53040;SDS011;39326;42.650;23.248;2022-12-07T07:03:14;51.90;;;30.70;;
53040;SDS011;39326;42.650;23.248;2022-12-07T07:05:39;72.17;;;36.20;;
53040;SDS011;39326;42.650;23.248;2022-12-07T07:08:04;44.57;;;32.47;;
53040;SDS011;39326;42.650;23.248;2022-12-07T07:10:30;72.90;;;36.73;;
53040;SDS011;39326;42.650;23.248;2022-12-07T07:12:55;47.40;;;35.27;;
53040;SDS011;39326;42.650;23.248;2022-12-07T07:15:21;49.03;;;38.33;;
53040;SDS011;39326;42.650;23.248;2022-12-07T07:17:47;74.63;;;34.43;;
53040;SDS011;39326;42.650;23.248;2022-12-07T07:20:12;47.60;;;33.63;;
53040;SDS011;39326;42.650;23.248;2022-12-07T07:22:38;123.53;;;38.03;;
53040;SDS011;39326;42.650;23.248;2022-12-07T07:25:03;44.00;;;31.37;;
53040;SDS011;39326;42.650;23.248;2022-12-07T07:27:29;48.57;;;32.10;;
53040;SDS011;39326;42.650;23.248;2022-12-07T07:29:54;43.63;;;32.77;;
53040;SDS011;39326;42.650;23.248;2022-12-07T07:32:19;40.17;;;34.53;;
53040;SDS011;39326;42.650;23.248;2022-12-07T07:34:46;46.83;;;33.27;;
53040;SDS011;39326;42.650;23.248;2022-12-07T07:37:11;40.83;;;31.17;;
53040;SDS011;39326;42.650;23.248;2022-12-07T07:39:37;43.57;;;31.43;;
53040;SDS011;39326;42.650;23.248;2022-12-07T07:42:03;40.67;;;31.13;;
53040;SDS011;39326;42.650;23.248;2022-12-07T07:44:29;38.77;;;28.73;;
53040;SDS011;39326;42.650;23.248;2022-12-07T07:46:54;41.20;;;29.80;;
53040;SDS011;39326;42.650;23.248;2022-12-07T07:49:20;45.93;;;36.37;;
53040;SDS011;39326;42.650;23.248;2022-12-07T07:51:45;44.90;;;33.47;;
53040;SDS011;39326;42.650;23.248;2022-12-07T07:54:11;61.67;;;39.27;;
53040;SDS011;39326;42.650;23.248;2022-12-07T07:56:36;55.50;;;39.03;;
53040;SDS011;39326;42.650;23.248;2022-12-07T07:59:01;50.57;;;35.70;;
53040;SDS011;39326;42.650;23.248;2022-12-07T08:01:27;71.67;;;35.80;;
53040;SDS011;39326;42.650;23.248;2022-12-07T08:03:52;43.73;;;33.23;;
53040;SDS011;39326;42.650;23.248;2022-12-07T08:06:18;40.43;;;31.77;;
53040;SDS011;39326;42.650;23.248;2022-12-07T08:08:43;42.20;;;31.63;;
53040;SDS011;39326;42.650;23.248;2022-12-07T08:11:09;47.60;;;35.70;;
53040;SDS011;39326;42.650;23.248;2022-12-07T08:13:35;40.40;;;30.87;;
53040;SDS011;39326;42.650;23.248;2022-12-07T08:16:04;46.57;;;33.40;;
53040;SDS011;39326;42.650;23.248;2022-12-07T08:18:34;42.43;;;32.90;;
53040;SDS011;39326;42.650;23.248;2022-12-07T08:21:04;42.07;;;31.93;;
53040;SDS011;39326;42.650;23.248;2022-12-07T08:23:30;44.63;;;32.07;;
53040;SDS011;39326;42.650;23.248;2022-12-07T08:26:00;44.77;;;32.43;;
53040;SDS011;39326;42.650;23.248;2022-12-07T08:28:26;63.23;;;38.07;;
53040;SDS011;39326;42.650;23.248;2022-12-07T08:30:52;54.70;;;36.53;;
53040;SDS011;39326;42.650;23.248;2022-12-07T08:33:23;55.13;;;37.47;;
53040;SDS011;39326;42.650;23.248;2022-12-07T08:35:48;74.07;;;43.83;;
53040;SDS011;39326;42.650;23.248;2022-12-07T08:38:13;48.57;;;36.73;;
53040;SDS011;39326;42.650;23.248;2022-12-07T08:40:39;49.33;;;36.33;;
53040;SDS011;39326;42.650;23.248;2022-12-07T08:43:05;54.80;;;40.60;;
53040;SDS011;39326;42.650;23.248;2022-12-07T08:45:30;56.47;;;38.73;;
53040;SDS011;39326;42.650;23.248;2022-12-07T08:48:02;54.23;;;39.33;;
53040;SDS011;39326;42.650;23.248;2022-12-07T08:50:31;45.77;;;34.80;;
53040;SDS011;39326;42.650;23.248;2022-12-07T08:52:58;43.80;;;34.93;;
53040;SDS011;39326;42.650;23.248;2022-12-07T08:55:25;39.20;;;31.63;;
53040;SDS011;39326;42.650;23.248;2022-12-07T08:57:52;36.33;;;29.00;;
53040;SDS011;39326;42.650;23.248;2022-12-07T09:00:18;37.10;;;28.43;;
53040;SDS011;39326;42.650;23.248;2022-12-07T09:02:43;36.77;;;29.53;;
53040;SDS011;39326;42.650;23.248;2022-12-07T09:05:10;41.33;;;31.00;;
53040;SDS011;39326;42.650;23.248;2022-12-07T09:07:36;40.73;;;32.33;;
53040;SDS011;39326;42.650;23.248;2022-12-07T09:10:02;43.40;;;33.83;;
53040;SDS011;39326;42.650;23.248;2022-12-07T09:12:29;42.77;;;32.17;;
53040;SDS011;39326;42.650;23.248;2022-12-07T09:14:54;42.33;;;31.17;;
53040;SDS011;39326;42.650;23.248;2022-12-07T09:17:19;39.67;;;30.80;;
53040;SDS011;39326;42.650;23.248;2022-12-07T09:19:45;39.73;;;30.27;;
53040;SDS011;39326;42.650;23.248;2022-12-07T09:22:10;34.90;;;28.03;;
53040;SDS011;39326;42.650;23.248;2022-12-07T09:24:36;34.73;;;28.87;;
53040;SDS011;39326;42.650;23.248;2022-12-07T09:27:01;36.10;;;30.10;;
53040;SDS011;39326;42.650;23.248;2022-12-07T09:29:27;36.83;;;30.97;;
53040;SDS011;39326;42.650;23.248;2022-12-07T09:31:52;37.03;;;30.50;;
53040;SDS011;39326;42.650;23.248;2022-12-07T09:34:18;35.57;;;28.30;;
53040;SDS011;39326;42.650;23.248;2022-12-07T09:36:44;33.07;;;26.53;;
53040;SDS011;39326;42.650;23.248;2022-12-07T09:39:10;32.50;;;27.60;;
53040;SDS011;39326;42.650;23.248;2022-12-07T09:41:42;31.87;;;26.90;;
53040;SDS011;39326;42.650;23.248;2022-12-07T09:44:10;32.30;;;27.87;;
53040;SDS011;39326;42.650;23.248;2022-12-07T09:46:40;35.53;;;26.90;;
53040;SDS011;39326;42.650;23.248;2022-12-07T09:49:16;33.53;;;27.07;;
53040;SDS011;39326;42.650;23.248;2022-12-07T09:51:44;35.13;;;27.97;;
53040;SDS011;39326;42.650;23.248;2022-12-07T09:54:13;36.37;;;27.10;;
53040;SDS011;39326;42.650;23.248;2022-12-07T09:56:40;34.13;;;27.33;;
53040;SDS011;39326;42.650;23.248;2022-12-07T09:59:09;34.33;;;28.30;;
53040;SDS011;39326;42.650;23.248;2022-12-07T10:01:41;33.20;;;28.17;;
53040;SDS011;39326;42.650;23.248;2022-12-07T10:04:13;36.50;;;29.57;;
53040;SDS011;39326;42.650;23.248;2022-12-07T10:06:41;33.57;;;28.37;;
53040;SDS011;39326;42.650;23.248;2022-12-07T10:09:14;36.40;;;28.60;;
53040;SDS011;39326;42.650;23.248;2022-12-07T10:15:02;33.07;;;27.83;;
53040;SDS011;39326;42.650;23.248;2022-12-07T10:22:55;33.97;;;28.40;;
53040;SDS011;39326;42.650;23.248;2022-12-07T10:25:22;33.43;;;27.17;;
53040;SDS011;39326;42.650;23.248;2022-12-07T10:28:27;31.40;;;26.93;;
53040;SDS011;39326;42.650;23.248;2022-12-07T10:33:37;33.23;;;26.10;;
53040;SDS011;39326;42.650;23.248;2022-12-07T10:39:02;35.57;;;24.97;;
53040;SDS011;39326;42.650;23.248;2022-12-07T10:41:35;35.67;;;28.03;;
53040;SDS011;39326;42.650;23.248;2022-12-07T10:44:01;29.70;;;25.03;;
53040;SDS011;39326;42.650;23.248;2022-12-07T10:46:34;32.17;;;24.87;;
53040;SDS011;39326;42.650;23.248;2022-12-07T10:57:43;36.03;;;26.43;;
53040;SDS011;39326;42.650;23.248;2022-12-07T11:00:17;35.60;;;26.87;;
53040;SDS011;39326;42.650;23.248;2022-12-07T11:02:55;32.23;;;25.07;;
53040;SDS011;39326;42.650;23.248;2022-12-07T11:05:36;31.47;;;24.53;;
53040;SDS011;39326;42.650;23.248;2022-12-07T11:10:55;30.13;;;23.97;;
53040;SDS011;39326;42.650;23.248;2022-12-07T11:16:14;29.93;;;23.60;;
53040;SDS011;39326;42.650;23.248;2022-12-07T11:21:48;28.77;;;20.80;;
53040;SDS011;39326;42.650;23.248;2022-12-07T11:27:37;26.07;;;20.03;;
53040;SDS011;39326;42.650;23.248;2022-12-07T11:30:18;22.40;;;19.07;;
53040;SDS011;39326;42.650;23.248;2022-12-07T11:41:40;19.47;;;14.83;;
53040;SDS011;39326;42.650;23.248;2022-12-07T11:44:22;17.87;;;14.67;;
53040;SDS011;39326;42.650;23.248;2022-12-07T11:47:11;20.17;;;14.97;;
53040;SDS011;39326;42.650;23.248;2022-12-07T11:49:47;17.03;;;13.43;;
53040;SDS011;39326;42.650;23.248;2022-12-07T11:54:48;14.93;;;13.33;;
53040;SDS011;39326;42.650;23.248;2022-12-07T11:57:25;15.87;;;14.07;;
53040;SDS011;39326;42.650;23.248;2022-12-07T11:59:59;14.10;;;12.60;;
53040;SDS011;39326;42.650;23.248;2022-12-07T12:02:38;14.80;;;13.13;;
53040;SDS011;39326;42.650;23.248;2022-12-07T12:07:46;17.57;;;12.50;;
53040;SDS011;39326;42.650;23.248;2022-12-07T12:13:09;16.10;;;11.50;;
53040;SDS011;39326;42.650;23.248;2022-12-07T12:21:31;11.43;;;10.33;;
53040;SDS011;39326;42.650;23.248;2022-12-07T12:26:35;14.30;;;11.10;;
53040;SDS011;39326;42.650;23.248;2022-12-07T12:29:06;15.47;;;12.23;;
53040;SDS011;39326;42.650;23.248;2022-12-07T12:31:46;15.13;;;12.97;;
53040;SDS011;39326;42.650;23.248;2022-12-07T12:42:48;23.00;;;15.30;;
53040;SDS011;39326;42.650;23.248;2022-12-07T12:52:49;16.43;;;14.00;;
53040;SDS011;39326;42.650;23.248;2022-12-07T12:55:16;17.40;;;14.50;;
53040;SDS011;39326;42.650;23.248;2022-12-07T12:57:45;18.37;;;15.93;;
53040;SDS011;39326;42.650;23.248;2022-12-07T13:02:53;21.43;;;16.27;;
53040;SDS011;39326;42.650;23.248;2022-12-07T13:05:21;19.60;;;16.33;;
53040;SDS011;39326;42.650;23.248;2022-12-07T13:07:51;17.53;;;15.63;;
53040;SDS011;39326;42.650;23.248;2022-12-07T13:10:24;19.23;;;16.30;;
53040;SDS011;39326;42.650;23.248;2022-12-07T13:12:58;17.80;;;15.07;;
53040;SDS011;39326;42.650;23.248;2022-12-07T13:31:54;22.70;;;16.10;;
53040;SDS011;39326;42.650;23.248;2022-12-07T13:34:35;20.67;;;15.33;;
53040;SDS011;39326;42.650;23.248;2022-12-07T13:37:04;19.77;;;15.90;;
53040;SDS011;39326;42.650;23.248;2022-12-07T13:39:35;21.47;;;16.43;;
53040;SDS011;39326;42.650;23.248;2022-12-07T13:42:33;18.87;;;14.57;;
53040;SDS011;39326;42.650;23.248;2022-12-07T13:45:00;18.63;;;14.70;;
53040;SDS011;39326;42.650;23.248;2022-12-07T13:47:49;19.67;;;15.60;;
53040;SDS011;39326;42.650;23.248;2022-12-07T13:50:23;19.33;;;15.20;;
53040;SDS011;39326;42.650;23.248;2022-12-07T13:52:59;22.93;;;16.70;;
53040;SDS011;39326;42.650;23.248;2022-12-07T13:55:26;24.10;;;17.30;;
53040;SDS011;39326;42.650;23.248;2022-12-07T13:57:53;24.37;;;16.23;;
53040;SDS011;39326;42.650;23.248;2022-12-07T14:05:27;19.00;;;15.80;;
53040;SDS011;39326;42.650;23.248;2022-12-07T14:10:27;23.27;;;20.33;;
53040;SDS011;39326;42.650;23.248;2022-12-07T14:12:54;20.30;;;16.67;;
53040;SDS011;39326;42.650;23.248;2022-12-07T14:15:21;18.40;;;14.20;;
53040;SDS011;39326;42.650;23.248;2022-12-07T14:17:49;25.67;;;21.73;;
53040;SDS011;39326;42.650;23.248;2022-12-07T14:23:27;21.10;;;18.37;;
53040;SDS011;39326;42.650;23.248;2022-12-07T14:25:53;25.07;;;21.80;;
53040;SDS011;39326;42.650;23.248;2022-12-07T14:28:29;27.83;;;23.10;;
53040;SDS011;39326;42.650;23.248;2022-12-07T14:30:56;17.67;;;12.73;;
53040;SDS011;39326;42.650;23.248;2022-12-07T14:33:22;12.60;;;11.27;;
53040;SDS011;39326;42.650;23.248;2022-12-07T14:35:48;10.60;;;9.53;;
53040;SDS011;39326;42.650;23.248;2022-12-07T14:38:14;12.97;;;11.73;;
53040;SDS011;39326;42.650;23.248;2022-12-07T14:40:39;11.93;;;9.13;;
53040;SDS011;39326;42.650;23.248;2022-12-07T14:43:08;13.40;;;10.60;;
53040;SDS011;39326;42.650;23.248;2022-12-07T14:45:36;13.17;;;11.90;;
53040;SDS011;39326;42.650;23.248;2022-12-07T14:48:02;14.77;;;13.23;;
53040;SDS011;39326;42.650;23.248;2022-12-07T14:50:27;10.70;;;9.60;;
53040;SDS011;39326;42.650;23.248;2022-12-07T14:52:59;11.73;;;9.87;;
53040;SDS011;39326;42.650;23.248;2022-12-07T14:57:53;11.87;;;9.03;;
53040;SDS011;39326;42.650;23.248;2022-12-07T15:00:19;9.77;;;7.30;;
53040;SDS011;39326;42.650;23.248;2022-12-07T15:02:47;10.63;;;6.90;;
53040;SDS011;39326;42.650;23.248;2022-12-07T15:05:13;9.53;;;7.90;;
53040;SDS011;39326;42.650;23.248;2022-12-07T15:07:39;8.27;;;7.10;;
53040;SDS011;39326;42.650;23.248;2022-12-07T15:10:05;9.30;;;7.17;;
53040;SDS011;39326;42.650;23.248;2022-12-07T15:12:31;11.90;;;8.47;;
53040;SDS011;39326;42.650;23.248;2022-12-07T15:14:57;8.23;;;7.43;;
53040;SDS011;39326;42.650;23.248;2022-12-07T15:17:22;9.53;;;8.10;;
53040;SDS011;39326;42.650;23.248;2022-12-07T15:19:48;9.70;;;8.13;;
53040;SDS011;39326;42.650;23.248;2022-12-07T15:22:13;9.87;;;8.67;;
53040;SDS011;39326;42.650;23.248;2022-12-07T15:24:38;15.30;;;8.73;;
53040;SDS011;39326;42.650;23.248;2022-12-07T15:27:04;11.30;;;9.57;;
53040;SDS011;39326;42.650;23.248;2022-12-07T15:29:30;12.77;;;11.47;;
53040;SDS011;39326;42.650;23.248;2022-12-07T15:31:55;30.23;;;27.27;;
53040;SDS011;39326;42.650;23.248;2022-12-07T15:34:21;20.50;;;18.37;;
53040;SDS011;39326;42.650;23.248;2022-12-07T15:36:48;17.80;;;15.90;;
53040;SDS011;39326;42.650;23.248;2022-12-07T15:39:14;67.10;;;60.63;;
53040;SDS011;39326;42.650;23.248;2022-12-07T15:41:39;37.00;;;33.30;;
53040;SDS011;39326;42.650;23.248;2022-12-07T15:44:05;84.20;;;75.93;;
53040;SDS011;39326;42.650;23.248;2022-12-07T15:46:49;14.27;;;11.97;;
53040;SDS011;39326;42.650;23.248;2022-12-07T15:49:16;10.30;;;9.10;;
53040;SDS011;39326;42.650;23.248;2022-12-07T15:51:43;62.93;;;51.13;;
53040;SDS011;39326;42.650;23.248;2022-12-07T15:54:28;13.20;;;10.10;;
53040;SDS011;39326;42.650;23.248;2022-12-07T15:56:54;11.13;;;8.17;;
53040;SDS011;39326;42.650;23.248;2022-12-07T15:59:20;19.53;;;16.97;;
53040;SDS011;39326;42.650;23.248;2022-12-07T16:01:46;62.60;;;56.23;;
53040;SDS011;39326;42.650;23.248;2022-12-07T16:04:11;20.13;;;15.03;;
53040;SDS011;39326;42.650;23.248;2022-12-07T16:06:37;16.23;;;14.40;;
53040;SDS011;39326;42.650;23.248;2022-12-07T16:09:03;30.90;;;27.90;;
53040;SDS011;39326;42.650;23.248;2022-12-07T16:11:28;26.93;;;24.13;;
53040;SDS011;39326;42.650;23.248;2022-12-07T16:13:55;22.90;;;18.73;;
53040;SDS011;39326;42.650;23.248;2022-12-07T16:16:20;14.30;;;12.13;;
53040;SDS011;39326;42.650;23.248;2022-12-07T16:18:49;16.90;;;12.40;;
53040;SDS011;39326;42.650;23.248;2022-12-07T16:21:16;16.73;;;15.00;;
53040;SDS011;39326;42.650;23.248;2022-12-07T16:23:42;20.27;;;13.63;;
53040;SDS011;39326;42.650;23.248;2022-12-07T16:26:08;18.47;;;14.63;;
53040;SDS011;39326;42.650;23.248;2022-12-07T16:28:37;13.07;;;11.67;;
53040;SDS011;39326;42.650;23.248;2022-12-07T16:31:07;38.63;;;30.27;;
53040;SDS011;39326;42.650;23.248;2022-12-07T16:33:35;28.03;;;21.00;;
53040;SDS011;39326;42.650;23.248;2022-12-07T16:36:01;12.33;;;10.40;;
53040;SDS011;39326;42.650;23.248;2022-12-07T16:38:27;28.67;;;21.13;;
53040;SDS011;39326;42.650;23.248;2022-12-07T16:40:53;16.27;;;10.80;;
53040;SDS011;39326;42.650;23.248;2022-12-07T16:43:19;43.77;;;31.87;;
53040;SDS011;39326;42.650;23.248;2022-12-07T16:45:46;36.43;;;26.30;;
53040;SDS011;39326;42.650;23.248;2022-12-07T16:48:12;20.60;;;14.07;;